.
WxDataArchive / Data Records for 2009-06-08
2009-06-07 June 2009 2009-06-09

Data Records for Monday, 08 June 2009

Time	Temp	Chill	HIndex	Humid	Dewpt	 Wind 	HiWind	WindDir	Rain 	Barom 
-----	----	-----	------	-----	-----	------	------	-------	-----	----- 
00:00	68.9	68.9	68.9	79	62.1	0	0	---	0.00	29.917 
00:05	68.8	68.8	68.8	79	62.0	0	0	---	0.00	29.917 
00:10	68.8	68.8	68.8	79	62.0	0	0	---	0.00	29.917 
00:15	68.6	68.6	68.6	80	62.2	0	0	---	0.00	29.917 
00:20	68.3	68.3	68.3	80	61.9	0	0	---	0.00	29.917 
00:25	68.1	68.1	68.1	81	62.0	0	0	---	0.00	29.917 
00:30	67.9	67.9	67.9	81	61.8	0	0	---	0.00	29.918 
00:35	67.8	67.8	67.8	82	62.1	0	0	---	0.00	29.918 
00:40	67.6	67.6	67.6	82	61.9	0	0	---	0.00	29.918 
00:45	67.4	67.4	67.4	83	62.0	0	0	---	0.00	29.918 
00:50	67.3	67.3	67.3	84	62.3	0	0	---	0.00	29.918 
00:55	67.1	67.1	67.1	84	62.1	0	0	---	0.00	29.918 
01:00	66.9	66.9	66.9	84	61.9	0	0	---	0.00	29.910 
01:05	66.9	66.9	66.9	84	61.9	0	0	---	0.00	29.910 
01:10	67.3	67.3	67.3	83	62.0	1	3	248	0.00	29.910 
01:15	67.8	67.8	67.8	81	61.7	0	2	112	0.00	29.913 
01:20	68.1	68.1	68.1	80	61.7	0	1	112	0.00	29.913 
01:25	68.3	68.3	68.3	80	61.9	0	0	---	0.00	29.913 
01:30	68.3	68.3	68.3	79	61.5	0	0	---	0.00	29.905 
01:35	68.3	68.3	68.3	79	61.5	0	0	---	0.00	29.905 
01:40	67.9	67.9	67.9	80	61.5	0	0	---	0.00	29.905 
01:45	67.6	67.6	67.6	80	61.2	0	0	---	0.00	29.904 
01:50	67.3	67.3	67.3	81	61.3	0	0	---	0.00	29.904 
01:55	67.1	67.1	67.1	81	61.1	0	0	---	0.00	29.904 
02:00	66.8	66.8	66.8	82	61.1	0	0	---	0.00	29.902 
02:05	66.6	66.6	66.6	83	61.3	0	0	---	0.00	29.902 
02:10	66.4	66.4	66.4	83	61.1	0	0	---	0.00	29.902 
02:15	66.1	66.1	66.1	84	61.1	0	0	---	0.00	29.904 
02:20	66.0	66.0	66.0	84	61.0	0	0	---	0.00	29.904 
02:25	65.8	65.8	65.8	85	61.2	0	0	---	0.00	29.904 
02:30	65.6	65.6	65.6	85	61.0	0	0	---	0.00	29.897 
02:35	65.6	65.6	65.6	86	61.3	0	0	---	0.00	29.897 
02:40	65.5	65.5	65.5	86	61.2	0	0	---	0.00	29.897 
02:45	65.5	65.5	65.5	86	61.2	0	0	---	0.00	29.897 
02:50	65.5	65.5	65.5	86	61.2	0	0	---	0.00	29.897 
02:55	65.3	65.3	65.3	86	61.0	0	0	---	0.00	29.897 
03:00	65.3	65.3	65.3	86	61.0	0	0	---	0.00	29.889 
03:05	65.2	65.2	65.2	86	60.9	0	0	---	0.00	29.889 
03:10	65.2	65.2	65.2	87	61.2	0	0	---	0.00	29.889 
03:15	65.0	65.0	65.0	87	61.0	0	0	---	0.00	29.886 
03:20	64.8	64.8	64.8	87	60.8	0	0	---	0.00	29.886 
03:25	64.7	64.7	64.7	87	60.7	0	0	---	0.00	29.886 
03:30	64.5	64.5	64.5	87	60.5	0	0	---	0.00	29.876 
03:35	64.3	64.3	64.3	88	60.7	0	0	---	0.00	29.876 
03:40	64.3	64.3	64.3	88	60.7	0	0	---	0.00	29.876 
03:45	64.3	64.3	64.3	88	60.7	0	1	112	0.00	29.871 
03:50	64.3	64.3	64.3	88	60.7	0	1	112	0.00	29.871 
03:55	64.5	64.5	64.5	88	60.9	0	1	112	0.00	29.871 
04:00	64.5	64.5	64.5	88	60.9	0	1	112	0.00	29.862 
04:05	64.7	64.7	64.7	87	60.7	0	1	112	0.00	29.862 
04:10	64.7	64.7	64.7	87	60.7	0	1	112	0.00	29.862 
04:15	64.7	64.7	64.7	87	60.7	0	1	112	0.00	29.855 
04:20	64.7	64.7	64.7	86	60.4	0	1	112	0.00	29.855 
04:25	64.7	64.7	64.7	86	60.4	0	1	112	0.00	29.855 
04:30	64.7	64.7	64.7	86	60.4	0	1	112	0.00	29.843 
04:35	64.5	64.5	64.5	86	60.2	0	1	112	0.00	29.843 
04:40	64.5	64.5	64.5	86	60.2	0	0	---	0.00	29.843 
04:45	64.3	64.3	64.3	87	60.3	0	0	---	0.00	29.834 
04:50	64.3	64.3	64.3	87	60.3	0	0	---	0.00	29.834 
04:55	64.3	64.3	64.3	87	60.3	0	1	112	0.00	29.834 
05:00	64.2	64.2	64.2	87	60.2	0	1	112	0.00	29.826 
05:05	64.2	64.2	64.2	87	60.2	0	0	---	0.00	29.826 
05:10	64.2	64.2	64.2	87	60.2	0	1	112	0.00	29.826 
05:15	64.2	64.2	64.2	87	60.2	0	1	112	0.00	29.826 
05:20	64.2	64.2	64.2	86	59.9	0	1	112	0.00	29.826 
05:25	64.2	64.2	64.2	86	59.9	0	1	112	0.00	29.826 
05:30	64.3	64.3	64.3	86	60.0	0	1	112	0.00	29.827 
05:35	64.3	64.3	64.3	86	60.0	0	1	112	0.00	29.827 
05:40	64.5	64.5	64.5	85	59.9	0	1	112	0.00	29.827 
05:45	64.5	64.5	64.5	85	59.9	0	1	112	0.00	29.836 
05:50	64.7	64.7	64.7	85	60.1	0	1	112	0.00	29.836 
05:55	64.7	64.7	64.7	84	59.7	0	0	---	0.00	29.836 
06:00	64.7	64.7	64.7	84	59.7	0	0	---	0.00	29.841 
06:05	64.8	64.8	64.8	84	59.8	0	0	---	0.00	29.841 
06:10	64.8	64.8	64.8	84	59.8	0	0	---	0.00	29.841 
06:15	64.8	64.8	64.8	85	60.2	0	0	---	0.00	29.860 
06:20	64.8	64.8	64.8	85	60.2	0	0	---	0.00	29.860 
06:25	64.8	64.8	64.8	85	60.2	0	0	---	0.00	29.860 
06:30	65.0	65.0	65.0	86	60.7	0	0	---	0.00	29.883 
06:35	65.0	65.0	65.0	86	60.7	0	1	112	0.00	29.883 
06:40	65.0	65.0	65.0	87	61.0	0	0	---	0.00	29.883 
06:45	65.2	65.2	65.2	87	61.2	0	0	---	0.00	29.895 
06:50	65.2	65.2	65.2	88	61.6	0	1	112	0.00	29.895 
06:55	65.2	65.2	65.2	89	61.9	0	2	112	0.02	29.895 
07:00	65.2	65.2	65.2	89	61.9	0	2	112	0.00	29.903 
07:05	65.3	65.3	65.3	89	62.0	1	4	202	0.01	29.903 
07:10	65.3	65.3	65.3	89	62.0	0	2	248	0.00	29.903 
07:15	65.5	65.5	65.5	90	62.5	0	1	248	0.00	29.904 
07:20	65.5	65.5	65.5	90	62.5	0	1	248	0.00	29.904 
07:25	65.5	65.5	65.5	90	62.5	0	1	248	0.00	29.904 
07:30	65.5	65.5	65.5	90	62.5	0	1	248	0.00	29.894 
07:35	65.5	65.5	65.5	91	62.8	0	0	---	0.00	29.894 
07:40	65.6	65.6	65.6	91	62.9	0	0	---	0.00	29.894 
07:45	65.8	65.8	65.8	92	63.4	0	0	---	0.00	29.879 
07:50	66.0	66.0	66.0	92	63.6	0	0	---	0.00	29.879 
07:55	66.1	66.1	66.1	92	63.7	0	0	---	0.00	29.879 
08:00	66.3	66.3	66.3	92	63.9	0	0	---	0.00	29.881 
08:05	66.3	66.3	66.3	92	63.9	0	0	---	0.00	29.881 
08:10	66.4	66.4	66.4	92	64.0	0	0	---	0.00	29.881 
08:15	66.6	66.6	66.6	92	64.2	0	0	---	0.00	29.881 
08:20	66.6	66.6	66.6	92	64.2	0	0	---	0.00	29.881 
08:25	66.8	66.8	66.8	92	64.4	0	0	---	0.00	29.881 
08:30	66.6	66.6	66.6	92	64.2	0	1	248	0.00	29.874 
08:35	66.6	66.6	66.6	92	64.2	0	0	---	0.00	29.874 
08:40	66.8	66.8	66.8	92	64.4	0	0	---	0.00	29.874 
08:45	66.8	66.8	66.8	92	64.4	0	0	---	0.00	29.875 
08:50	66.9	66.9	66.9	92	64.5	0	0	---	0.00	29.875 
08:55	67.1	67.1	67.1	92	64.7	0	1	248	0.00	29.875 
09:00	67.3	67.3	67.3	92	64.9	0	1	248	0.00	29.872 
09:05	67.3	67.3	67.3	91	64.6	1	2	248	0.00	29.872 
09:10	67.9	67.9	67.9	90	64.9	0	2	248	0.00	29.872 
09:15	69.1	69.1	69.1	88	65.4	1	2	248	0.00	29.868 
09:20	70.1	70.1	70.1	86	65.7	0	2	248	0.00	29.868 
09:25	71.1	71.1	71.1	82	65.3	1	3	90	0.00	29.868 
09:30	71.6	71.6	71.6	78	64.4	2	5	112	0.00	29.855 
09:35	72.3	72.3	72.3	78	65.0	1	3	68	0.00	29.855 
09:40	73.2	73.2	73.2	78	65.9	0	2	90	0.00	29.855 
09:45	73.5	73.5	73.5	74	64.7	1	3	90	0.00	29.851 
09:50	73.3	73.3	73.3	74	64.5	1	4	90	0.00	29.851 
09:55	73.2	73.2	73.2	73	64.0	1	4	90	0.00	29.851 
10:00	73.0	73.0	73.0	74	64.2	1	3	135	0.00	29.843 
10:05	72.7	72.7	72.7	75	64.3	1	3	112	0.00	29.843 
10:10	72.3	72.3	72.3	76	64.3	0	2	112	0.00	29.843 
10:15	72.1	72.1	72.1	76	64.1	1	3	112	0.00	29.841 
10:20	72.1	72.1	72.1	77	64.5	0	2	112	0.00	29.841 
10:25	72.1	72.1	72.1	78	64.8	1	2	112	0.00	29.841 
10:30	72.3	72.3	72.3	77	64.7	1	2	68	0.00	29.844 
10:35	72.5	72.5	72.5	76	64.5	1	3	45	0.00	29.844 
10:40	72.8	72.8	72.8	77	65.2	0	3	90	0.00	29.844 
10:45	73.7	73.7	73.7	75	65.3	0	2	90	0.00	29.844 
10:50	74.4	74.4	74.4	71	64.4	1	3	90	0.00	29.844 
10:55	74.9	74.9	74.9	71	64.8	1	4	270	0.00	29.844 
11:00	75.6	75.6	77.4	67	63.9	1	5	90	0.00	29.841 
11:05	75.4	75.4	77.3	67	63.7	1	4	90	0.00	29.841 
11:10	75.6	75.6	77.4	68	64.3	1	2	248	0.00	29.841 
11:15	76.0	76.0	77.8	67	64.2	1	3	22	0.00	29.851 
11:20	76.5	76.5	78.3	67	64.7	1	3	68	0.00	29.851 
11:25	77.0	77.0	78.8	64	63.9	2	6	68	0.00	29.851 
11:30	77.4	77.4	79.2	64	64.2	1	4	68	0.00	29.843 
11:35	77.6	77.6	79.4	63	64.0	1	3	338	0.00	29.843 
11:40	77.0	77.0	78.8	63	63.4	2	6	248	0.00	29.843 
11:45	77.2	77.2	79.0	66	64.9	2	5	270	0.00	29.839 
11:50	77.6	77.6	79.4	62	63.5	2	5	68	0.00	29.839 
11:55	78.1	78.1	79.9	64	64.9	1	4	270	0.00	29.839 
12:00	78.5	78.5	80.2	60	63.4	2	6	270	0.00	29.838 
12:05	79.0	79.0	80.9	63	65.3	1	5	248	0.00	29.838 
12:10	79.2	79.2	81.1	62	65.0	2	5	248	0.00	29.838 
12:15	79.4	79.4	81.2	61	64.8	2	6	90	0.00	29.837 
12:20	79.2	79.2	80.9	60	64.1	2	9	270	0.00	29.837 
12:25	79.6	79.6	81.3	59	64.0	2	6	292	0.00	29.837 
12:30	79.9	79.9	81.6	59	64.3	1	4	270	0.00	29.839 
12:35	79.8	79.8	81.5	59	64.2	2	6	248	0.00	29.839 
12:40	80.1	80.1	81.7	58	64.0	2	4	248	0.00	29.839 
12:45	80.3	80.3	82.1	59	64.6	1	5	292	0.00	29.836 
12:50	79.9	79.9	81.5	58	63.8	2	4	248	0.00	29.836 
12:55	79.6	79.6	81.3	59	64.0	1	6	270	0.00	29.836 
13:00	79.0	79.0	80.7	60	63.9	2	5	270	0.00	29.843 
13:05	78.5	78.5	80.2	60	63.4	3	9	270	0.00	29.843 
13:10	78.3	78.3	80.0	60	63.2	2	10	270	0.00	29.843 
13:15	78.3	78.3	80.0	61	63.7	2	6	270	0.00	29.843 
13:20	78.8	78.8	80.5	60	63.7	2	10	270	0.00	29.843 
13:25	79.0	79.0	80.7	60	63.9	3	10	248	0.00	29.843 
13:30	78.8	78.8	80.5	61	64.2	2	6	248	0.00	29.853 
13:35	78.6	78.6	80.3	61	64.0	2	5	270	0.00	29.853 
13:40	78.3	78.3	80.0	61	63.7	3	5	270	0.00	29.853 
13:45	77.7	77.7	79.4	62	63.6	2	5	292	0.00	29.839 
13:50	77.2	77.2	79.0	65	64.5	2	7	248	0.00	29.839 
13:55	76.3	76.3	78.0	68	64.9	1	3	248	0.01	29.839 
14:00	75.4	75.4	77.0	71	65.3	0	2	270	0.00	29.812 
14:05	74.7	74.7	74.7	73	65.5	0	1	270	0.00	29.812 
14:10	74.2	74.2	74.2	75	65.8	0	1	270	0.00	29.812 
14:15	73.9	73.9	73.9	77	66.2	0	3	270	0.01	29.803 
14:20	73.7	73.7	73.7	79	66.8	1	3	68	0.00	29.803 
14:25	73.5	73.5	73.5	81	67.3	0	1	68	0.00	29.803 
14:30	73.2	73.2	73.2	81	67.0	0	2	68	0.00	29.800 
14:35	73.0	73.0	73.0	81	66.8	0	3	68	0.00	29.800 
14:40	73.2	73.2	73.2	82	67.4	0	3	68	0.00	29.800 
14:45	73.2	73.2	73.2	81	67.0	1	3	248	0.00	29.799 
14:50	73.5	73.5	73.5	81	67.3	1	3	270	0.00	29.799 
14:55	73.9	73.9	73.9	81	67.7	1	4	248	0.00	29.799 
15:00	74.4	74.4	74.4	79	67.4	1	4	270	0.00	29.787 
15:05	74.9	74.9	74.9	78	67.6	1	4	270	0.00	29.787 
15:10	75.4	75.4	76.3	78	68.0	0	4	248	0.00	29.787 
15:15	76.0	76.0	77.2	78	68.6	0	2	248	0.00	29.790 
15:20	76.3	76.3	77.7	76	68.2	1	3	248	0.00	29.790 
15:25	76.3	76.3	77.8	73	67.0	1	4	270	0.00	29.790 
15:30	76.3	76.3	77.8	73	67.0	1	3	270	0.00	29.794 
15:35	76.5	76.5	78.1	74	67.6	0	2	270	0.00	29.794 
15:40	76.7	76.7	78.4	72	67.0	1	5	248	0.00	29.794 
15:45	77.4	77.4	79.3	72	67.6	1	3	248	0.00	29.792 
15:50	78.1	78.1	80.2	71	67.9	2	6	292	0.00	29.792 
15:55	79.0	79.0	81.3	69	67.9	1	4	270	0.00	29.792 
16:00	79.8	79.8	82.6	70	69.1	1	3	270	0.00	29.782 
16:05	79.9	79.9	82.5	67	67.9	1	4	270	0.00	29.782 
16:10	79.6	79.6	82.0	67	67.7	1	4	270	0.00	29.782 
16:15	79.4	79.4	81.6	66	67.0	2	7	270	0.00	29.777 
16:20	79.4	79.4	81.6	66	67.0	2	5	248	0.00	29.777 
16:25	79.6	79.6	81.8	65	66.8	2	5	292	0.00	29.777 
16:30	79.6	79.6	81.8	65	66.8	2	5	270	0.00	29.774 
16:35	79.9	79.9	82.0	63	66.2	2	4	270	0.00	29.774 
16:40	80.5	80.5	82.9	64	67.2	1	5	292	0.00	29.774 
16:45	80.9	80.9	83.2	62	66.6	2	6	270	0.00	29.764 
16:50	81.6	81.6	84.0	61	66.8	1	6	248	0.00	29.764 
16:55	82.2	82.2	84.7	60	66.9	2	5	270	0.00	29.764 
17:00	82.4	82.4	84.8	59	66.6	2	8	270	0.00	29.759 
17:05	82.0	82.0	83.9	57	65.2	3	10	270	0.00	29.759 
17:10	81.8	81.8	83.6	57	65.0	3	10	270	0.00	29.759 
17:15	82.0	82.0	84.1	58	65.7	3	10	270	0.00	29.758 
17:20	82.2	82.2	84.3	58	65.9	2	5	248	0.00	29.758 
17:25	82.4	82.4	84.4	57	65.6	2	5	270	0.00	29.758 
17:30	82.4	82.4	84.2	56	65.1	2	6	270	0.00	29.759 
17:35	82.4	82.4	84.2	56	65.1	2	6	270	0.00	29.759 
17:40	82.2	82.2	83.6	54	63.9	2	6	248	0.00	29.759 
17:45	81.8	81.8	83.3	55	64.0	2	6	292	0.00	29.760 
17:50	81.6	81.6	82.9	54	63.3	2	5	270	0.00	29.760 
17:55	81.6	81.6	82.9	54	63.3	3	9	270	0.00	29.760 
18:00	81.2	81.2	82.5	54	62.9	3	6	270	0.00	29.761 
18:05	81.2	81.2	82.7	56	64.0	1	3	248	0.00	29.761 
18:10	81.1	81.1	82.3	54	62.9	2	9	248	0.00	29.761 
18:15	81.1	81.1	82.2	53	62.3	3	7	270	0.00	29.760 
18:20	81.1	81.1	82.3	54	62.9	3	9	270	0.00	29.760 
18:25	81.1	81.1	82.3	54	62.9	1	3	270	0.00	29.760 
18:30	81.1	81.1	82.2	53	62.3	2	7	270	0.00	29.759 
18:35	80.7	80.7	81.8	53	62.0	2	7	248	0.00	29.759 
18:40	80.5	80.5	81.6	53	61.8	2	6	270	0.00	29.759 
18:45	80.3	80.3	81.5	54	62.1	1	4	270	0.00	29.763 
18:50	80.3	80.3	81.6	55	62.6	1	4	270	0.00	29.763 
18:55	80.1	80.1	81.4	55	62.4	1	3	270	0.00	29.763 
19:00	80.3	80.3	81.5	54	62.1	2	5	270	0.00	29.765 
19:05	80.3	80.3	81.5	54	62.1	1	3	270	0.00	29.765 
19:10	80.3	80.3	81.5	54	62.1	2	5	248	0.00	29.765 
19:15	80.3	80.3	81.6	55	62.6	1	4	270	0.00	29.767 
19:20	80.1	80.1	81.3	54	61.9	1	4	270	0.00	29.767 
19:25	80.1	80.1	81.2	53	61.4	2	6	248	0.00	29.767 
19:30	80.3	80.3	81.4	53	61.6	1	4	270	0.00	29.764 
19:35	80.3	80.3	81.4	53	61.6	2	6	270	0.00	29.764 
19:40	80.5	80.5	81.7	54	62.3	1	3	270	0.00	29.764 
19:45	80.3	80.3	81.5	54	62.1	2	5	270	0.00	29.764 
19:50	80.1	80.1	81.3	54	61.9	2	7	248	0.00	29.764 
19:55	79.9	79.9	81.1	54	61.7	1	4	292	0.00	29.764 
20:00	79.9	79.9	81.1	54	61.7	1	5	292	0.00	29.776 
20:05	79.9	79.9	81.1	54	61.7	1	3	270	0.00	29.776 
20:10	79.9	79.9	81.1	54	61.7	1	5	270	0.00	29.776 
20:15	79.8	79.8	81.0	54	61.7	1	3	270	0.00	29.777 
20:20	79.8	79.8	81.0	54	61.7	1	2	270	0.00	29.777 
20:25	79.6	79.6	80.8	54	61.5	2	4	270	0.00	29.777 
20:30	79.6	79.6	80.8	54	61.5	2	5	270	0.00	29.776 
20:35	79.4	79.4	80.7	55	61.8	1	3	270	0.00	29.776 
20:40	79.0	79.0	80.3	55	61.4	2	4	270	0.00	29.776 
20:45	78.8	78.8	80.1	55	61.2	1	4	270	0.00	29.782 
20:50	78.6	78.6	80.0	56	61.6	1	3	270	0.00	29.782 
20:55	78.6	78.6	80.0	56	61.6	1	2	270	0.00	29.782 
21:00	78.5	78.5	80.0	57	62.0	1	2	248	0.00	29.776 
21:05	78.3	78.3	79.9	58	62.3	1	3	248	0.00	29.776 
21:10	78.1	78.1	79.9	62	64.0	1	2	248	0.01	29.776 
21:15	76.7	76.7	78.5	68	65.3	1	3	248	0.00	29.774 
21:20	75.6	75.6	77.2	70	65.1	0	0	---	0.00	29.774 
21:25	74.6	74.6	74.6	74	65.7	0	0	---	0.00	29.774 
21:30	73.9	73.9	73.9	77	66.2	0	0	---	0.00	29.776 
21:35	73.2	73.2	73.2	78	65.9	0	2	248	0.00	29.776 
21:40	72.8	72.8	72.8	79	65.9	1	5	248	0.00	29.776 
21:45	72.7	72.7	72.7	80	66.2	0	2	248	0.00	29.788 
21:50	72.3	72.3	72.3	80	65.8	1	2	248	0.01	29.788 
21:55	72.1	72.1	72.1	81	65.9	1	2	248	0.00	29.788 
22:00	72.1	72.1	72.1	81	65.9	1	4	248	0.00	29.800 
22:05	72.0	72.0	72.0	82	66.2	2	5	248	0.00	29.800 
22:10	71.3	71.3	71.3	83	65.9	1	5	248	0.03	29.800 
22:15	70.3	70.3	70.3	85	65.6	1	3	248	0.00	29.807 
22:20	69.6	69.6	69.6	87	65.6	1	2	248	0.00	29.807 
22:25	69.1	69.1	69.1	88	65.4	0	2	248	0.00	29.807 
22:30	68.8	68.8	68.8	88	65.1	0	3	248	0.00	29.815 
22:35	68.4	68.4	68.4	89	65.0	1	3	248	0.00	29.815 
22:40	68.3	68.3	68.3	89	64.9	1	4	270	0.01	29.815 
22:45	68.1	68.1	68.1	89	64.7	1	3	270	0.00	29.808 
22:50	67.9	67.9	67.9	89	64.5	0	3	270	0.00	29.808 
22:55	67.9	67.9	67.9	89	64.5	0	4	270	0.00	29.808 
23:00	67.8	67.8	67.8	90	64.8	0	1	248	0.00	29.802 
23:05	67.8	67.8	67.8	90	64.8	0	2	248	0.00	29.802 
23:10	67.8	67.8	67.8	90	64.8	0	1	248	0.00	29.802 
23:15	67.6	67.6	67.6	90	64.6	0	1	248	0.00	29.806 
23:20	67.6	67.6	67.6	91	64.9	0	0	---	0.00	29.806 
23:25	67.6	67.6	67.6	91	64.9	0	1	248	0.00	29.806 
23:30	67.4	67.4	67.4	91	64.7	0	0	---	0.00	29.804 
23:35	67.4	67.4	67.4	91	64.7	0	0	---	0.00	29.804 
23:40	67.3	67.3	67.3	91	64.6	0	0	---	0.00	29.804 
23:45	67.1	67.1	67.1	92	64.7	0	0	---	0.00	29.799 
23:50	66.9	66.9	66.9	92	64.5	0	0	---	0.00	29.799 
23:55	66.9	66.9	66.9	92	64.5	0	0	---	0.00	29.799 

CoCoRaHS
IN-AL-39
A2 Web Hosting
Creative Commons License
GoDaddy
search engine by freefind advanced

loaded 2018-11-17 14:01:08 • last modified 2010-11-18 10:43:29
Privacy PolicyDisclaimer
• wx.awcolley.com is powered by PmWiki v.2002016 •
• all content (unless otherwise noted) © 2018 A W Colley